createdAt,value
2023-04-17T00:01:05.805Z,6.39
2023-04-17T00:04:10.970Z,6.29
2023-04-17T00:07:13.826Z,6.32
2023-04-17T00:10:16.749Z,6.28
2023-04-17T00:13:19.100Z,6.30
2023-04-17T00:16:21.412Z,6.08
2023-04-17T00:19:23.818Z,6.15
2023-04-17T00:22:26.304Z,6.23
2023-04-17T00:25:28.634Z,6.28
2023-04-17T00:28:31.011Z,6.09
2023-04-17T00:31:33.376Z,6.09
2023-04-17T00:34:35.895Z,6.19
2023-04-17T00:37:38.232Z,6.26
2023-04-17T00:40:42.130Z,6.16
2023-04-17T00:43:44.443Z,6.14
2023-04-17T00:46:47.036Z,6.02
2023-04-17T00:49:51.205Z,6.21
2023-04-17T00:52:53.426Z,6.16
2023-04-17T00:55:56.170Z,6.20
2023-04-17T00:58:58.847Z,6.14
2023-04-17T01:02:01.373Z,6.10
2023-04-17T01:05:04.492Z,6.06
2023-04-17T01:08:06.928Z,6.05
2023-04-17T01:11:10.423Z,6.10
2023-04-17T01:14:15.670Z,6.23
2023-04-17T01:17:19.673Z,6.05
2023-04-17T01:20:22.389Z,6.07
2023-04-17T01:23:24.805Z,6.18
2023-04-17T01:26:28.421Z,6.11
2023-04-17T01:29:31.054Z,6.06
2023-04-17T01:32:33.734Z,6.11
2023-04-17T01:35:36.139Z,6.13
2023-04-17T01:38:38.760Z,6.10
2023-04-17T01:41:41.248Z,6.18
2023-04-17T01:44:43.750Z,6.21
2023-04-17T01:47:46.128Z,6.11
2023-04-17T01:50:48.469Z,6.15
2023-04-17T01:53:50.781Z,6.16
2023-04-17T01:56:53.408Z,6.18
2023-04-17T01:59:57.238Z,6.18
2023-04-17T02:03:00.361Z,6.08
2023-04-17T02:06:02.840Z,6.03
2023-04-17T02:09:06.318Z,6.13
2023-04-17T02:12:11.635Z,6.13
2023-04-17T02:15:14.141Z,6.20
2023-04-17T02:18:16.811Z,6.28
2023-04-17T02:21:19.173Z,6.27
2023-04-17T02:24:21.474Z,6.22
2023-04-17T02:27:23.795Z,6.22
2023-04-17T02:30:27.336Z,6.21
2023-04-17T02:33:31.503Z,6.30
2023-04-17T02:36:34.585Z,6.23
2023-04-17T02:39:36.972Z,6.18
2023-04-17T02:42:39.331Z,6.09
2023-04-17T02:45:41.577Z,6.23
2023-04-17T02:48:44.164Z,6.25
2023-04-17T02:51:46.654Z,6.22
2023-04-17T02:54:49.042Z,6.11
2023-04-17T02:57:52.880Z,6.08
2023-04-17T03:01:01.936Z,6.21
2023-04-17T03:04:06.885Z,6.26
2023-04-17T03:07:10.603Z,6.23
2023-04-17T03:10:14.634Z,6.07
2023-04-17T03:13:16.993Z,6.12
2023-04-17T03:16:19.330Z,6.06
2023-04-17T03:19:22.369Z,6.24
2023-04-17T03:22:25.669Z,6.15
2023-04-17T03:25:28.204Z,6.15
2023-04-17T03:28:31.113Z,6.24
2023-04-17T03:31:33.455Z,6.10
2023-04-17T03:34:35.864Z,6.17
2023-04-17T03:37:38.214Z,6.12
2023-04-17T03:40:41.989Z,6.11
2023-04-17T03:43:45.784Z,6.31
2023-04-17T03:46:48.139Z,6.26
2023-04-17T03:49:50.612Z,6.27
2023-04-17T03:52:53.844Z,6.12
2023-04-17T03:55:57.349Z,6.31
2023-04-17T03:59:05.039Z,6.37
2023-04-17T04:02:11.910Z,6.39
2023-04-17T04:05:15.829Z,6.24
2023-04-17T04:08:18.999Z,6.39
2023-04-17T04:11:25.320Z,6.52
2023-04-17T04:14:27.732Z,6.30
2023-04-17T04:17:30.483Z,6.39
2023-04-17T04:20:33.675Z,6.51
2023-04-17T04:23:47.110Z,6.60
2023-04-17T04:26:53.648Z,6.62
2023-04-17T04:29:59.004Z,6.57
2023-04-17T04:33:08.526Z,6.66
2023-04-17T04:36:14.029Z,6.67
2023-04-17T04:39:20.758Z,6.74
2023-04-17T04:42:24.125Z,6.79
2023-04-17T04:45:37.566Z,6.95
2023-04-17T04:48:42.690Z,6.89
2023-04-17T04:51:45.889Z,6.96
2023-04-17T04:54:48.912Z,7.07
2023-04-17T04:57:54.275Z,7.11
2023-04-17T05:00:57.994Z,7.23
2023-04-17T05:04:06.875Z,7.23
2023-04-17T05:07:09.754Z,7.36
2023-04-17T05:10:14.022Z,7.38
2023-04-17T05:13:22.063Z,7.32
2023-04-17T05:16:25.159Z,7.60
2023-04-17T05:19:28.137Z,7.68
2023-04-17T05:22:36.268Z,7.76
2023-04-17T05:25:45.684Z,7.95
2023-04-17T05:28:49.453Z,8.07
2023-04-17T05:31:57.293Z,8.11
2023-04-17T05:35:16.563Z,8.09
2023-04-17T05:38:19.182Z,7.96
2023-04-17T05:41:21.591Z,7.94
2023-04-17T05:44:23.889Z,7.97
2023-04-17T05:47:26.415Z,8.04
2023-04-17T05:50:29.103Z,7.90
2023-04-17T05:53:31.960Z,8.02
2023-04-17T05:56:35.105Z,8.36
2023-04-17T05:59:37.964Z,8.56
2023-04-17T06:02:43.320Z,8.66
2023-04-17T06:05:52.100Z,8.90
2023-04-17T06:08:54.923Z,9.10
2023-04-17T06:11:59.210Z,9.14
2023-04-17T06:15:01.717Z,9.24
2023-04-17T06:18:04.358Z,9.27
2023-04-17T06:21:08.117Z,9.20
2023-04-17T06:24:11.607Z,9.28
2023-04-17T06:27:19.798Z,9.50
2023-04-17T06:30:22.518Z,9.49
2023-04-17T06:33:28.561Z,9.79
2023-04-17T06:36:33.495Z,9.47
2023-04-17T06:39:38.996Z,9.26
2023-04-17T06:42:41.841Z,9.48
2023-04-17T06:45:49.248Z,9.49
2023-04-17T06:48:52.668Z,9.26
2023-04-17T06:51:55.774Z,9.35
2023-04-17T06:55:00.071Z,9.34
2023-04-17T06:58:02.836Z,9.51
2023-04-17T07:01:05.755Z,9.62
2023-04-17T07:04:09.237Z,9.78
2023-04-17T07:07:11.892Z,10.02
2023-04-17T07:10:16.250Z,10.00
2023-04-17T07:13:18.780Z,10.14
2023-04-17T07:16:24.433Z,10.14
2023-04-17T07:19:27.221Z,10.21
2023-04-17T07:22:29.577Z,10.38
2023-04-17T07:25:31.893Z,10.40
2023-04-17T07:28:34.566Z,10.24
2023-04-17T07:31:37.422Z,10.28
2023-04-17T07:34:41.633Z,10.29
2023-04-17T07:37:44.009Z,10.42
2023-04-17T07:40:46.598Z,9.95
2023-04-17T07:43:49.042Z,9.91
2023-04-17T07:46:51.584Z,9.71
2023-04-17T07:49:53.962Z,9.62
2023-04-17T07:52:56.736Z,9.78
2023-04-17T07:55:59.735Z,9.71
2023-04-17T07:59:02.749Z,9.81
2023-04-17T08:02:06.028Z,9.89
2023-04-17T08:05:09.667Z,9.93
2023-04-17T08:08:12.029Z,10.05
2023-04-17T08:11:15.846Z,10.19
2023-04-17T08:14:20.471Z,10.56
2023-04-17T08:17:26.376Z,10.77
2023-04-17T08:20:28.782Z,10.88
2023-04-17T08:23:31.500Z,11.07
2023-04-17T08:26:33.959Z,11.09
2023-04-17T08:29:36.636Z,11.12
2023-04-17T08:32:46.871Z,11.19
2023-04-17T08:35:49.685Z,11.37
2023-04-17T08:38:52.954Z,11.39
2023-04-17T08:42:03.282Z,11.59
2023-04-17T08:45:07.770Z,11.35
2023-04-17T08:48:11.551Z,11.35
2023-04-17T08:51:15.425Z,11.36
2023-04-17T08:54:19.613Z,11.53
2023-04-17T08:57:22.004Z,11.51
2023-04-17T09:00:26.318Z,11.42
2023-04-17T09:03:41.276Z,11.33
2023-04-17T09:06:54.645Z,11.72
2023-04-17T09:09:57.688Z,11.65
2023-04-17T09:13:01.547Z,11.76
2023-04-17T09:16:06.241Z,11.80
2023-04-17T09:19:08.999Z,11.85
2023-04-17T09:22:21.721Z,12.00
2023-04-17T09:25:24.497Z,12.00
2023-04-17T09:28:26.892Z,12.25
2023-04-17T09:31:31.076Z,12.45
2023-04-17T09:34:40.702Z,12.78
2023-04-17T09:37:55.839Z,12.61
2023-04-17T09:40:58.340Z,12.80
2023-04-17T09:44:05.579Z,12.65
2023-04-17T09:47:08.634Z,12.98
2023-04-17T09:50:11.795Z,12.83
2023-04-17T09:53:16.614Z,12.88
2023-04-17T09:56:21.765Z,12.92
2023-04-17T09:59:25.099Z,12.89
2023-04-17T10:02:28.584Z,12.93
2023-04-17T10:05:32.611Z,13.08
2023-04-17T10:08:35.379Z,13.13
2023-04-17T10:11:46.231Z,13.09
2023-04-17T10:14:51.060Z,13.01
2023-04-17T10:17:56.463Z,12.88
2023-04-17T10:21:22.527Z,13.31
2023-04-17T10:24:25.713Z,13.44
2023-04-17T10:27:28.168Z,13.54
2023-04-17T10:30:56.393Z,13.62
2023-04-17T10:33:58.794Z,13.71
2023-04-17T10:37:01.761Z,13.83
2023-04-17T10:40:10.369Z,13.86
2023-04-17T10:43:23.572Z,13.93
2023-04-17T10:46:26.863Z,13.86
2023-04-17T10:49:29.390Z,13.82
2023-04-17T10:52:41.729Z,13.85
2023-04-17T10:55:53.391Z,13.69
2023-04-17T10:58:59.601Z,13.69
2023-04-17T11:02:04.874Z,13.77
2023-04-17T11:05:08.663Z,13.68
2023-04-17T11:08:12.008Z,13.72
2023-04-17T11:11:26.936Z,13.55
2023-04-17T11:14:43.207Z,13.72
2023-04-17T11:17:48.602Z,13.67
2023-04-17T11:20:51.415Z,13.79
2023-04-17T11:23:53.850Z,13.80
2023-04-17T11:27:00.019Z,13.59
2023-04-17T11:30:02.697Z,13.51
2023-04-17T11:33:07.949Z,13.65
2023-04-17T11:36:11.089Z,13.74
2023-04-17T11:39:15.919Z,13.77
2023-04-17T11:42:27.894Z,13.73
2023-04-17T11:45:32.707Z,13.59
2023-04-17T11:48:35.512Z,13.72
2023-04-17T11:51:37.940Z,13.31
2023-04-17T11:54:41.315Z,13.52
2023-04-17T11:57:43.822Z,13.39
2023-04-17T12:00:46.236Z,13.24
2023-04-17T12:03:48.888Z,13.19
2023-04-17T12:06:51.463Z,13.48
2023-04-17T12:09:57.903Z,13.63
2023-04-17T12:13:00.422Z,13.82
2023-04-17T12:16:02.982Z,13.90
2023-04-17T12:19:05.645Z,13.70
2023-04-17T12:22:08.071Z,13.61
2023-04-17T12:25:10.776Z,13.91
2023-04-17T12:28:13.103Z,13.99
2023-04-17T12:31:15.616Z,14.02
2023-04-17T12:34:18.132Z,13.99
2023-04-17T12:37:20.748Z,13.72
2023-04-17T12:40:25.217Z,13.84
2023-04-17T12:43:27.847Z,13.81
2023-04-17T12:46:31.552Z,13.70
2023-04-17T12:49:33.927Z,13.70
2023-04-17T12:52:36.392Z,13.64
2023-04-17T12:55:41.079Z,13.58
2023-04-17T12:58:44.057Z,13.42
2023-04-17T13:01:46.938Z,13.35
2023-04-17T13:04:53.611Z,13.04
2023-04-17T13:07:57.274Z,13.03
2023-04-17T13:11:00.959Z,13.14
2023-04-17T13:14:04.003Z,12.93
2023-04-17T13:17:06.892Z,12.83
2023-04-17T13:20:10.311Z,12.83
2023-04-17T13:23:14.616Z,12.80
2023-04-17T13:26:17.101Z,12.64
2023-04-17T13:29:20.103Z,12.50
2023-04-17T13:32:23.125Z,12.41
2023-04-17T13:35:25.596Z,12.23
2023-04-17T13:38:28.023Z,12.00
2023-04-17T13:41:30.363Z,12.04
2023-04-17T13:44:33.349Z,11.89
2023-04-17T13:47:35.982Z,11.96
2023-04-17T13:50:38.592Z,11.88
2023-04-17T13:53:41.300Z,11.84
2023-04-17T13:56:43.817Z,12.00
2023-04-17T13:59:46.537Z,11.53
2023-04-17T14:02:49.235Z,11.91
2023-04-17T14:05:51.867Z,11.77
2023-04-17T14:08:55.500Z,11.66
2023-04-17T14:11:58.382Z,11.62
2023-04-17T14:15:00.710Z,11.43
2023-04-17T14:18:03.469Z,11.41
2023-04-17T14:21:06.072Z,11.18
2023-04-17T14:24:08.849Z,11.42
2023-04-17T14:27:11.298Z,11.39
2023-04-17T14:30:13.918Z,11.11
2023-04-17T14:33:16.190Z,10.99
2023-04-17T14:36:18.564Z,10.99
2023-04-17T14:39:20.913Z,11.05
2023-04-17T14:42:23.376Z,10.91
2023-04-17T14:45:25.910Z,10.84
2023-04-17T14:48:30.286Z,10.83
2023-04-17T14:51:33.637Z,10.71
2023-04-17T14:54:36.072Z,10.59
2023-04-17T14:57:38.365Z,10.73
2023-04-17T15:00:41.134Z,10.50
2023-04-17T15:03:47.448Z,10.57
2023-04-17T15:06:50.920Z,10.55
2023-04-17T15:09:55.291Z,10.43
2023-04-17T15:13:00.453Z,10.37
2023-04-17T15:16:03.447Z,10.18
2023-04-17T15:19:06.202Z,10.04
2023-04-17T15:22:08.701Z,10.18
2023-04-17T15:25:11.101Z,10.16
2023-04-17T15:28:13.568Z,10.08
2023-04-17T15:31:16.017Z,10.01
2023-04-17T15:34:18.922Z,9.97
2023-04-17T15:37:21.390Z,9.97
2023-04-17T15:40:23.919Z,9.93
2023-04-17T15:43:27.008Z,9.92
2023-04-17T15:46:31.879Z,9.82
2023-04-17T15:49:34.615Z,9.75
2023-04-17T15:52:37.096Z,9.75
2023-04-17T15:55:41.481Z,9.68
2023-04-17T15:58:43.983Z,9.59
2023-04-17T16:01:47.947Z,9.51
2023-04-17T16:04:50.348Z,9.51
2023-04-17T16:07:52.728Z,9.41
2023-04-17T16:10:55.460Z,9.40
2023-04-17T16:13:58.163Z,9.31
2023-04-17T16:17:01.277Z,9.27
2023-04-17T16:20:04.419Z,9.22
2023-04-17T16:23:06.849Z,9.15
2023-04-17T16:26:09.304Z,9.23
2023-04-17T16:29:11.836Z,8.98
2023-04-17T16:32:14.476Z,9.06
2023-04-17T16:35:17.550Z,9.18
2023-04-17T16:38:20.037Z,9.03
2023-04-17T16:41:22.393Z,9.14
2023-04-17T16:44:28.593Z,9.17
2023-04-17T16:47:31.435Z,9.04
2023-04-17T16:50:33.961Z,9.01
2023-04-17T16:53:36.385Z,9.01
2023-04-17T16:56:38.751Z,8.98
2023-04-17T16:59:41.144Z,8.93
2023-04-17T17:02:43.995Z,9.00
2023-04-17T17:05:48.164Z,8.96
2023-04-17T17:08:51.085Z,9.01
2023-04-17T17:11:54.600Z,8.90
2023-04-17T17:14:57.080Z,8.79
2023-04-17T17:17:59.386Z,8.82
2023-04-17T17:21:02.089Z,8.79
2023-04-17T17:24:04.724Z,8.57
2023-04-17T17:27:07.167Z,8.65
2023-04-17T17:30:09.846Z,8.68
2023-04-17T17:33:12.228Z,8.62
2023-04-17T17:36:14.992Z,8.55
2023-04-17T17:39:17.404Z,8.59
2023-04-17T17:42:19.767Z,8.36
2023-04-17T17:45:22.068Z,8.21
2023-04-17T17:48:24.505Z,8.07
2023-04-17T17:51:27.738Z,7.91
2023-04-17T17:54:30.068Z,7.94
2023-04-17T17:57:42.278Z,8.10
2023-04-17T18:00:51.538Z,7.99
2023-04-17T18:03:54.184Z,7.98
2023-04-17T18:06:56.840Z,8.01
2023-04-17T18:09:59.216Z,8.19
2023-04-17T18:13:01.805Z,8.14
2023-04-17T18:16:04.989Z,8.04
2023-04-17T18:19:07.774Z,8.18
2023-04-17T18:22:10.669Z,8.15
2023-04-17T18:25:13.177Z,8.15
2023-04-17T18:28:15.779Z,8.15
2023-04-17T18:31:19.114Z,8.01
2023-04-17T18:34:25.092Z,8.04
2023-04-17T18:37:27.622Z,8.04
2023-04-17T18:40:30.785Z,8.06
2023-04-17T18:43:33.297Z,8.05
2023-04-17T18:46:35.882Z,8.05
2023-04-17T18:49:38.590Z,8.09
2023-04-17T18:52:43.220Z,8.02
2023-04-17T18:55:47.994Z,7.95
2023-04-17T18:58:51.299Z,7.97
2023-04-17T19:01:53.657Z,7.84
2023-04-17T19:04:56.460Z,7.62
2023-04-17T19:07:59.020Z,7.57
2023-04-17T19:11:01.874Z,7.63
2023-04-17T19:14:04.197Z,7.66
2023-04-17T19:17:06.547Z,7.65
2023-04-17T19:20:09.920Z,7.69
2023-04-17T19:23:12.693Z,7.70
2023-04-17T19:26:18.286Z,7.64
2023-04-17T19:29:20.607Z,7.48
2023-04-17T19:32:22.902Z,7.52
2023-04-17T19:35:26.331Z,7.55
2023-04-17T19:38:28.940Z,7.62
2023-04-17T19:41:31.476Z,7.59
2023-04-17T19:44:33.888Z,7.56
2023-04-17T19:47:37.418Z,7.41
2023-04-17T19:50:39.852Z,7.53
2023-04-17T19:53:43.455Z,7.52
2023-04-17T19:56:45.941Z,7.45
2023-04-17T19:59:48.413Z,7.44
2023-04-17T20:02:51.030Z,7.41
2023-04-17T20:05:54.048Z,7.39
2023-04-17T20:08:58.519Z,7.46
2023-04-17T20:12:00.939Z,7.45
2023-04-17T20:15:03.496Z,7.46
2023-04-17T20:18:07.646Z,7.45
2023-04-17T20:21:09.897Z,7.61
2023-04-17T20:24:13.052Z,7.61
2023-04-17T20:27:15.466Z,7.67
2023-04-17T20:30:17.900Z,7.56
2023-04-17T20:33:20.404Z,7.68
2023-04-17T20:36:22.780Z,7.56
2023-04-17T20:39:25.161Z,7.72
2023-04-17T20:42:27.634Z,7.65
2023-04-17T20:45:30.033Z,7.67
2023-04-17T20:48:32.477Z,7.71
2023-04-17T20:51:34.977Z,7.82
2023-04-17T20:54:37.378Z,7.77
2023-04-17T20:57:41.024Z,7.74
2023-04-17T21:00:57.847Z,7.69
2023-04-17T21:04:03.545Z,7.81
2023-04-17T21:07:06.170Z,7.85
2023-04-17T21:10:09.048Z,7.77
2023-04-17T21:13:11.523Z,7.79
2023-04-17T21:16:14.081Z,7.83
2023-04-17T21:19:16.507Z,7.77
2023-04-17T21:22:19.122Z,7.80
2023-04-17T21:25:21.750Z,7.76
2023-04-17T21:28:24.259Z,7.78
2023-04-17T21:31:26.945Z,7.66
2023-04-17T21:34:29.304Z,7.74
2023-04-17T21:37:31.595Z,7.71
2023-04-17T21:40:36.678Z,7.75
2023-04-17T21:43:39.415Z,7.76
2023-04-17T21:46:45.242Z,7.73
2023-04-17T21:49:47.569Z,7.82
2023-04-17T21:52:49.937Z,7.70
2023-04-17T21:55:52.277Z,7.75
2023-04-17T21:58:54.788Z,7.66
2023-04-17T22:01:57.282Z,7.75
2023-04-17T22:04:59.858Z,7.83
2023-04-17T22:08:02.403Z,7.81
2023-04-17T22:11:05.985Z,7.72
2023-04-17T22:14:08.464Z,7.70
2023-04-17T22:17:10.799Z,7.79
2023-04-17T22:21:09.283Z,7.82
2023-04-17T22:25:26.971Z,7.81
2023-04-17T22:29:44.083Z,7.74
2023-04-17T22:34:01.721Z,7.72
2023-04-17T22:38:18.852Z,7.73
2023-04-17T22:42:36.281Z,7.73
2023-04-17T22:46:53.238Z,7.81
2023-04-17T22:51:10.895Z,7.89
2023-04-17T22:55:28.195Z,7.81
2023-04-17T22:59:45.597Z,7.67
2023-04-17T23:04:03.247Z,7.56
2023-04-17T23:08:20.934Z,7.66
2023-04-17T23:11:41.981Z,7.76
2023-04-17T23:14:45.914Z,7.71
2023-04-17T23:17:48.309Z,7.75
2023-04-17T23:20:50.970Z,7.74
2023-04-17T23:23:53.368Z,7.78
2023-04-17T23:26:56.386Z,7.69
2023-04-17T23:29:59.589Z,7.75
2023-04-17T23:33:01.965Z,7.65
2023-04-17T23:36:04.637Z,7.69
2023-04-17T23:39:06.987Z,7.71
2023-04-17T23:42:09.877Z,7.62
2023-04-17T23:45:12.288Z,7.66
2023-04-17T23:48:14.861Z,7.65
2023-04-17T23:51:17.698Z,7.44
2023-04-17T23:54:20.204Z,7.59
2023-04-17T23:57:22.599Z,7.60
